Terminal Aerodrome Forecast
Issued by NWS Sterling, VA

Current Version | Previous Version | Graphics & Text | Print | Product List | Glossary On
Versions: 1 2 3 4 5 6 7 8 9 10 11 12 13 14 15 16 17 18 19 20 21
000
FTUS41 KLWX 142300
TAFIAD
TAF
KIAD 142323Z 1500/1606 VRB03KT P6SM SCT080
     FM151000 VRB03KT 5SM MIFG SCT045
     FM151200 18005KT P6SM SCT250=

USA.gov is the U.S. government's official web portal to all federal, state and local government web resources and services.